Dunster, Canada
Current Conditions -  °F | °C
As of 9:59 AM on Monday 24 Nov 2014 (Local Time) from CYQZ Reporting Station
Moderate Snow Moderate Snow  
Wind Chill: 24°   Ceiling: 800
Heat Index: 32°   Visibility: 0.37mi
Dew Point: 32°   Wind: 10mph
Humidity: 100%   Direction: 130°SE
Pressure: 29.97"   Gusts: NA
Location:  53.12°N, 119.83°W
Report Text: CYQZ 241759Z AUTO 13009KT 3/8SM SN VV008 M00/M00 A2997 RMK PCPN 1.5MM PAST HR SLP178
Loading
Personal Weather Stations






























Interactive Weather Map New forecast layout! Learn more

10-Day Weather Forecast

Advertisements
Track Severe Weather on mobile